Time;durP1;ratioP1;P1;durP2;ratioP2;P2;SDS_P1;SDS_P2;PMS_P1;PMS_P2;Temp;Humidity;BMP_temperature;BMP_pressure;BME280_temperature;BME280_humidity;BME280_pressure;Samples;Min_cycle;Max_cycle;Signal;HPM_P1;HPM_P2
2023/06/10 00:00:44;;;;;;;;;;;21.40;65.30;;;;;;20910798;28;20023;-53
2023/06/10 00:10:45;;;;;;;;;;;21.40;65.40;;;;;;20918142;28;19932;-54
2023/06/10 00:20:46;;;;;;;;;;;21.40;65.30;;;;;;20925758;28;19924;-55
2023/06/10 00:30:47;;;;;;;;;;;21.20;65.30;;;;;;20926378;28;20044;-53
2023/06/10 00:40:47;;;;;;;;;;;21.20;65.40;;;;;;20925673;28;19964;-54
2023/06/10 00:50:48;;;;;;;;;;;21.10;65.70;;;;;;20924916;28;19983;-54
2023/06/10 01:00:49;;;;;;;;;;;21.10;66.20;;;;;;20923813;28;19956;-53
2023/06/10 01:10:52;;;;;;;;;;;21.00;66.50;;;;;;20922917;28;19925;-53
2023/06/10 01:20:53;;;;;;;;;;;20.90;66.80;;;;;;20921976;28;20438;-53
2023/06/10 01:31:07;;;;;;;;;;;20.90;67.00;;;;;;20921677;28;19991;-56
2023/06/10 01:41:09;;;;;;;;;;;20.90;67.20;;;;;;20921367;28;19925;-54
2023/06/10 01:51:10;;;;;;;;;;;20.80;67.60;;;;;;20920262;28;19932;-54
2023/06/10 02:01:10;;;;;;;;;;;20.80;67.60;;;;;;20919496;28;19925;-53
2023/06/10 02:11:11;;;;;;;;;;;20.70;67.90;;;;;;20918556;28;19925;-54
2023/06/10 02:21:12;;;;;;;;;;;20.70;67.90;;;;;;20917495;28;19925;-53
2023/06/10 02:31:13;;;;;;;;;;;20.70;68.00;;;;;;20915343;28;19925;-54
2023/06/10 02:41:13;;;;;;;;;;;20.70;68.50;;;;;;20916294;28;19924;-54
2023/06/10 02:51:14;;;;;;;;;;;20.50;69.20;;;;;;20914358;28;19925;-56
2023/06/10 03:01:15;;;;;;;;;;;20.60;69.10;;;;;;20913905;28;20019;-54
2023/06/10 03:11:15;;;;;;;;;;;20.60;69.40;;;;;;20914634;28;19979;-55
2023/06/10 03:21:16;;;;;;;;;;;20.40;69.60;;;;;;20913679;28;20382;-53
2023/06/10 03:31:17;;;;;;;;;;;20.40;69.70;;;;;;20913706;28;19936;-54
2023/06/10 03:41:17;;;;;;;;;;;20.40;70.10;;;;;;20913678;28;20101;-55
2023/06/10 03:51:18;;;;;;;;;;;20.30;70.40;;;;;;20929607;28;20398;-54
2023/06/10 04:01:20;;;;;;;;;;;20.30;70.20;;;;;;20927498;28;19924;-55
2023/06/10 04:11:21;;;;;;;;;;;20.30;70.40;;;;;;20928083;28;19931;-54
2023/06/10 04:21:21;;;;;;;;;;;20.30;70.60;;;;;;20927520;28;20003;-54
2023/06/10 04:31:24;;;;;;;;;;;20.30;70.40;;;;;;20926318;28;20221;-54
2023/06/10 04:41:25;;;;;;;;;;;20.20;70.80;;;;;;20925936;28;19925;-54
2023/06/10 04:51:26;;;;;;;;;;;20.00;71.40;;;;;;20924840;28;20377;-54
2023/06/10 05:01:27;;;;;;;;;;;20.00;71.40;;;;;;20923730;28;19925;-54
2023/06/10 05:11:28;;;;;;;;;;;20.10;71.10;;;;;;20922631;28;19994;-53
2023/06/10 05:21:28;;;;;;;;;;;20.20;71.10;;;;;;20922922;28;19924;-54
2023/06/10 05:31:29;;;;;;;;;;;20.20;71.10;;;;;;20919930;28;19925;-55
2023/06/10 05:41:30;;;;;;;;;;;20.30;70.90;;;;;;20917919;28;19925;-54
2023/06/10 05:51:31;;;;;;;;;;;20.20;71.40;;;;;;20917179;28;19964;-56
2023/06/10 06:01:32;;;;;;;;;;;20.30;71.10;;;;;;20918238;28;20405;-55
2023/06/10 06:11:33;;;;;;;;;;;20.50;70.70;;;;;;20917395;28;19933;-55
2023/06/10 06:21:33;;;;;;;;;;;20.60;70.30;;;;;;20915983;28;19932;-53
2023/06/10 06:31:34;;;;;;;;;;;20.60;70.20;;;;;;20915085;28;20286;-54
2023/06/10 06:41:35;;;;;;;;;;;20.70;69.80;;;;;;20915694;28;19924;-53
2023/06/10 06:51:35;;;;;;;;;;;20.70;69.90;;;;;;20914980;28;19939;-54
2023/06/10 07:01:36;;;;;;;;;;;20.70;69.90;;;;;;20913559;28;19924;-55
2023/06/10 07:11:37;;;;;;;;;;;20.90;69.40;;;;;;20913851;28;19932;-53
2023/06/10 07:21:37;;;;;;;;;;;21.10;68.80;;;;;;20912327;28;19933;-55
2023/06/10 07:31:38;;;;;;;;;;;21.00;68.80;;;;;;20911737;28;20000;-54
2023/06/10 07:41:39;;;;;;;;;;;21.20;68.90;;;;;;20911680;28;19925;-55
2023/06/10 07:51:39;;;;;;;;;;;21.30;67.80;;;;;;20911294;28;19975;-55
2023/06/10 08:01:40;;;;;;;;;;;21.40;66.60;;;;;;20909514;28;19940;-55
2023/06/10 08:11:41;;;;;;;;;;;22.10;64.70;;;;;;20910206;28;20008;-55
2023/06/10 08:21:42;;;;;;;;;;;22.10;64.40;;;;;;20909734;28;19931;-54
2023/06/10 08:31:42;;;;;;;;;;;22.10;64.80;;;;;;20916802;28;19925;-55
2023/06/10 08:41:44;;;;;;;;;;;22.90;61.80;;;;;;20923407;28;19935;-58
2023/06/10 08:51:47;;;;;;;;;;;23.50;59.80;;;;;;20900343;28;19925;-57
2023/06/10 09:01:48;;;;;;;;;;;23.70;59.10;;;;;;20912636;28;19951;-59
2023/06/10 09:11:48;;;;;;;;;;;23.80;59.40;;;;;;20858224;28;19925;-56
2023/06/10 09:21:49;;;;;;;;;;;24.40;56.30;;;;;;20829036;28;20483;-56
2023/06/10 09:31:50;;;;;;;;;;;24.50;56.00;;;;;;20821996;28;19925;-57
2023/06/10 09:41:50;;;;;;;;;;;24.90;54.80;;;;;;20902187;28;19933;-57
2023/06/10 09:51:54;;;;;;;;;;;25.00;53.20;;;;;;20919765;28;20011;-57
2023/06/10 10:01:55;;;;;;;;;;;24.90;56.40;;;;;;20913385;28;19929;-61
2023/06/10 10:11:57;;;;;;;;;;;24.80;55.70;;;;;;20846488;28;19925;-59
2023/06/10 10:22:05;;;;;;;;;;;25.10;53.00;;;;;;20915965;28;19948;-58
2023/06/10 10:32:08;;;;;;;;;;;25.40;51.60;;;;;;20913619;28;19931;-57
2023/06/10 10:42:10;;;;;;;;;;;24.90;50.60;;;;;;20907216;28;19948;-58
2023/06/10 10:52:11;;;;;;;;;;;25.30;49.60;;;;;;20912298;28;19932;-58
2023/06/10 11:02:17;;;;;;;;;;;25.50;48.10;;;;;;20914911;28;20037;-58
2023/06/10 11:12:22;;;;;;;;;;;25.70;48.10;;;;;;20914427;28;19929;-58
2023/06/10 11:22:22;;;;;;;;;;;25.70;47.10;;;;;;20913867;28;19936;-61
2023/06/10 11:32:33;;;;;;;;;;;25.80;46.90;;;;;;20912685;28;19929;-60
2023/06/10 11:42:38;;;;;;;;;;;25.90;47.40;;;;;;20913218;28;19978;-60
2023/06/10 11:52:41;;;;;;;;;;;26.20;45.40;;;;;;20912766;28;20005;-60
2023/06/10 12:02:41;;;;;;;;;;;26.20;46.30;;;;;;20913177;28;19924;-58
2023/06/10 12:12:42;;;;;;;;;;;26.10;47.00;;;;;;20927523;28;19960;-58
2023/06/10 12:22:43;;;;;;;;;;;26.40;45.20;;;;;;20926368;28;19925;-58
2023/06/10 12:32:45;;;;;;;;;;;26.60;43.80;;;;;;20925388;28;19925;-57
2023/06/10 12:42:45;;;;;;;;;;;26.50;44.40;;;;;;20925123;28;19975;-56
2023/06/10 12:52:46;;;;;;;;;;;26.60;44.70;;;;;;20899290;28;19925;-60
2023/06/10 13:02:48;;;;;;;;;;;27.00;44.40;;;;;;20835344;28;19932;-62
2023/06/10 13:12:49;;;;;;;;;;;26.60;43.60;;;;;;20832958;28;19925;-57
2023/06/10 13:22:50;;;;;;;;;;;26.30;42.10;;;;;;20824411;28;19932;-58
2023/06/10 13:32:50;;;;;;;;;;;26.60;40.40;;;;;;20828781;28;19925;-58
2023/06/10 13:42:52;;;;;;;;;;;27.10;40.00;;;;;;20836752;28;19925;-59
2023/06/10 13:52:53;;;;;;;;;;;27.30;39.10;;;;;;20835800;28;19925;-58
2023/06/10 14:02:53;;;;;;;;;;;27.30;38.60;;;;;;20835723;28;19925;-59
2023/06/10 14:12:54;;;;;;;;;;;27.40;39.20;;;;;;20836235;28;20390;-57
2023/06/10 14:22:54;;;;;;;;;;;27.50;37.80;;;;;;20834981;28;20027;-60
2023/06/10 14:32:55;;;;;;;;;;;27.60;37.70;;;;;;20833872;28;19968;-58
2023/06/10 14:42:56;;;;;;;;;;;27.80;36.40;;;;;;20832485;28;19980;-57
2023/06/10 14:52:56;;;;;;;;;;;27.60;37.70;;;;;;20831137;28;19987;-58
2023/06/10 15:02:57;;;;;;;;;;;27.80;36.60;;;;;;20831264;28;19976;-58
2023/06/10 15:12:58;;;;;;;;;;;27.90;35.20;;;;;;20832265;28;20486;-58
2023/06/10 15:22:58;;;;;;;;;;;28.10;37.00;;;;;;20830862;28;19972;-58
2023/06/10 15:32:59;;;;;;;;;;;27.80;36.00;;;;;;20831021;28;19980;-58
2023/06/10 15:43:00;;;;;;;;;;;27.60;37.50;;;;;;20842386;28;19971;-58
2023/06/10 15:53:00;;;;;;;;;;;27.60;37.10;;;;;;20846703;28;19990;-58
2023/06/10 16:03:02;;;;;;;;;;;27.60;37.10;;;;;;20843917;28;20026;-60
2023/06/10 16:13:03;;;;;;;;;;;27.60;36.60;;;;;;20845871;28;20397;-58
2023/06/10 16:23:04;;;;;;;;;;;27.60;36.70;;;;;;20843409;28;20009;-58
2023/06/10 16:33:04;;;;;;;;;;;27.60;35.80;;;;;;20843441;28;19932;-58
2023/06/10 16:43:05;;;;;;;;;;;27.40;36.90;;;;;;20843198;28;19925;-57
2023/06/10 16:53:06;;;;;;;;;;;27.60;36.00;;;;;;20841582;28;19964;-59
2023/06/10 17:03:08;;;;;;;;;;;27.60;35.70;;;;;;20840497;28;19925;-58
2023/06/10 17:13:08;;;;;;;;;;;27.40;35.40;;;;;;20840953;28;19936;-58
2023/06/10 17:23:10;;;;;;;;;;;27.40;36.90;;;;;;20840186;28;20294;-57
2023/06/10 17:33:10;;;;;;;;;;;27.30;36.70;;;;;;20839716;28;19925;-59
2023/06/10 17:43:11;;;;;;;;;;;27.20;36.30;;;;;;20838770;28;19978;-58
2023/06/10 17:53:11;;;;;;;;;;;27.10;36.50;;;;;;20836196;28;19925;-57
2023/06/10 18:03:12;;;;;;;;;;;27.00;36.20;;;;;;20834749;28;20079;-58
2023/06/10 18:13:13;;;;;;;;;;;26.90;36.20;;;;;;20836437;28;20246;-58
2023/06/10 18:23:13;;;;;;;;;;;26.80;36.50;;;;;;20834625;28;19928;-57
2023/06/10 18:33:14;;;;;;;;;;;26.70;37.40;;;;;;20834279;28;20386;-59
2023/06/10 18:43:14;;;;;;;;;;;26.60;37.30;;;;;;20833633;28;19960;-58
2023/06/10 18:53:15;;;;;;;;;;;26.50;37.90;;;;;;20833309;28;19976;-58
2023/06/10 19:03:16;;;;;;;;;;;26.30;38.30;;;;;;20832521;28;19925;-58
2023/06/10 19:13:16;;;;;;;;;;;26.20;39.40;;;;;;20831192;28;19936;-58
2023/06/10 19:23:17;;;;;;;;;;;25.90;40.30;;;;;;20830838;28;19932;-57
2023/06/10 19:33:18;;;;;;;;;;;25.80;40.90;;;;;;20830059;28;19935;-58
2023/06/10 19:43:18;;;;;;;;;;;25.60;40.30;;;;;;20830998;28;20386;-58
2023/06/10 19:53:19;;;;;;;;;;;25.60;40.70;;;;;;20830769;28;19932;-59
2023/06/10 20:03:20;;;;;;;;;;;25.40;41.00;;;;;;20830933;28;19979;-60
2023/06/10 20:13:20;;;;;;;;;;;25.30;41.70;;;;;;20829869;28;19929;-59
2023/06/10 20:23:21;;;;;;;;;;;25.10;42.90;;;;;;20828603;28;19925;-59
2023/06/10 20:33:21;;;;;;;;;;;24.80;44.20;;;;;;20843825;28;20002;-59
2023/06/10 20:43:22;;;;;;;;;;;24.70;44.90;;;;;;20840563;28;19925;-58
2023/06/10 20:53:23;;;;;;;;;;;24.50;45.60;;;;;;20840828;28;19929;-59
2023/06/10 21:03:23;;;;;;;;;;;24.50;45.70;;;;;;20840121;28;20346;-59
2023/06/10 21:13:24;;;;;;;;;;;24.40;45.90;;;;;;20839723;28;19925;-58
2023/06/10 21:23:25;;;;;;;;;;;24.20;45.80;;;;;;20838016;28;19936;-57
2023/06/10 21:33:26;;;;;;;;;;;24.10;45.70;;;;;;20836507;28;19925;-57
2023/06/10 21:43:27;;;;;;;;;;;23.80;45.60;;;;;;20838190;28;19940;-57
2023/06/10 21:53:27;;;;;;;;;;;23.70;45.80;;;;;;20837938;28;19937;-58
2023/06/10 22:03:28;;;;;;;;;;;23.60;46.00;;;;;;20837192;28;20410;-60
2023/06/10 22:13:28;;;;;;;;;;;23.60;46.30;;;;;;20835964;28;20003;-58
2023/06/10 22:23:29;;;;;;;;;;;23.60;46.00;;;;;;20835031;28;19929;-59
2023/06/10 22:33:30;;;;;;;;;;;23.60;45.80;;;;;;20835094;28;19972;-58
2023/06/10 22:43:30;;;;;;;;;;;23.60;47.40;;;;;;20834379;28;19964;-59
2023/06/10 22:53:31;;;;;;;;;;;23.30;47.90;;;;;;20833051;28;20013;-57
2023/06/10 23:03:32;;;;;;;;;;;23.30;48.00;;;;;;20832812;28;19964;-58
2023/06/10 23:13:32;;;;;;;;;;;23.20;48.10;;;;;;20832559;28;19925;-59
2023/06/10 23:23:34;;;;;;;;;;;23.20;48.50;;;;;;20831138;28;19925;-58
2023/06/10 23:33:37;;;;;;;;;;;23.10;49.10;;;;;;20831435;28;19925;-58
2023/06/10 23:43:38;;;;;;;;;;;22.90;49.70;;;;;;20831034;28;20347;-57
2023/06/10 23:53:38;;;;;;;;;;;23.00;50.00;;;;;;20830533;28;19976;-57
